Terminal Aerodrome Forecast
Issued by NWS

Home | Current Version | Previous Version | Text Only | Print | Product List | Glossary On
Versions: 1 2 3 4 5 6 7 8 9 10 11 12 13 14 15 16 17 18 19 20 21 22 23 24 25 26 27 28 29 30
000
FTUS46 KOTX 070520
TAFCOE
TAF
KCOE 070520Z 0706/0806 14004KT P6SM SCT150
     FM070900 VRB03KT P6SM SCT015 BKN150
     FM072100 12005KT P6SM SCT070 BKN150
     FM080300 05005KT P6SM SCT050 BKN080
      AMD LTD TO CLD AND VIS=

USA.gov is the U.S. government's official web portal to all federal, state and local government web resources and services.